Raleigh, WV (25911)

6:24 AM EDT on September 16, 2014 (GMT -0400)
Southeast Beckley | Change Station
CLOSE
Current Station
Personal Weather Station
Location: Beckley, WV
Elevation: 2365 ft
Nearby Weather Stations

Elev 2365 ft 37.76 °N, 81.16 °W | Updated 1 second ago

Overcast
Overcast
59.2 °F
Feels Like 59.2 °F
N
0.0
Wind Variable Wind from NE
Gusts 0.0 mph

Today
High -- | Low -- °F
--% Chance of Precip.
Yesterday
High -- | Low -- °F
Precip. -- in
7:07 AM 7:30 PM
Waning Gibbous, 47% visible
Pressure 30.13 in
Visibility 10.0 miles
Clouds Overcast 800 ft
Dew Point 56 °F
Humidity 89%
Rainfall 0.00 in
Snow Depth Not available.
UV 0 out of 12
Pollen 6.10 out of 12
Air Quality Not available.
Flu Activity Not available.
SPECI KBKW 161010Z AUTO 00000KT 10SM OVC008 15/13 A3013 RMK AO2 CIG 007V013 T01500133 TSNO

More Conditions Fewer Conditions

Pressure 30.13 in
Visibility 10.0 miles
Clouds Overcast 800 ft
Dew Point 56 °F
Humidity 89%
Rainfall 0.00 in
Snow Depth Not available.
UV 0 out of 12
Pollen 6.10 out of 12
Air Quality Not available.
Flu Activity Not available.
SPECI KBKW 161010Z AUTO 00000KT 10SM OVC008 15/13 A3013 RMK AO2 CIG 007V013 T01500133 TSNO

More Conditions Fewer Conditions

10-Day Weather Forecast

Almanac

Astronomy

Sep. 16, 2014 Rise Set
Actual Time 7:07 AM EDT 7:30 PM EDT
Civil Twilight 6:41 AM EDT 7:57 PM EDT
Nautical Twilight 6:10 AM EDT 8:28 PM EDT
Astronomical Twilight 5:38 AM EDT 8:59 PM EDT
Moon 12:20 AM EDT 2:48 PM EDT
Length of Visible Light 13h 16m
Length of Day
12h 23m
Tomorrow will be 2m 25s shorter.
Waning Gibbous, 47% of the Moon is Illuminated
Today
Waning Gibbous
Sep 24
New
Oct 1
First Quarter
Oct 8
Full
Oct 15
Last Quarter

Today's Extremes

State Highs State Lows

Community

WunderPhotos

Upload Photos

1,753,718 photos uploaded!

WunderBlogs® & News

Nearby

Snow Depth

Station Depth Elevation
No new snow has been reported.

Earthquake Activity

City Distance Mag. Time & Date
No recent earthquake activity has been reported nearby.
Minimum magnitude displayed is 2.5.

Coastal Water Temperatures

Place Temperature
No Stations Reporting

Nearby Weather Stations